Time;durP1;ratioP1;P1;durP2;ratioP2;P2;SDS_P1;SDS_P2;PMS_P1;PMS_P2;Temp;Humidity;BMP_temperature;BMP_pressure;BME280_temperature;BME280_humidity;BME280_pressure;Samples;Min_cycle;Max_cycle;Signal;HPM_P1;HPM_P2
2023/01/03 00:00:16;;;;;;;;;;;20.30;53.50;;;;;;1556272;74;758;-70
2023/01/03 00:02:18;;;;;;;;;;;20.30;53.50;;;;;;1563323;74;1414;-71
2023/01/03 00:04:20;;;;;;;;;;;20.30;53.60;;;;;;1565028;74;1935;-70
2023/01/03 00:06:23;;;;;;;;;;;20.30;53.60;;;;;;1567823;75;1122;-70
2023/01/03 00:08:26;;;;;;;;;;;20.30;53.50;;;;;;1564788;74;742;-70
2023/01/03 00:10:28;;;;;;;;;;;20.30;53.60;;;;;;1553967;74;843;-70
2023/01/03 00:12:31;;;;;;;;;;;20.30;53.60;;;;;;1567266;74;709;-70
2023/01/03 00:14:34;;;;;;;;;;;20.30;53.60;;;;;;1566150;74;662;-70
2023/01/03 00:16:36;;;;;;;;;;;20.30;53.60;;;;;;1558208;74;1107;-71
2023/01/03 00:18:38;;;;;;;;;;;20.30;53.60;;;;;;1567633;74;761;-70
2023/01/03 00:20:40;;;;;;;;;;;20.30;53.60;;;;;;1558540;75;735;-70
2023/01/03 00:22:42;;;;;;;;;;;20.30;53.60;;;;;;1566538;75;734;-71
2023/01/03 00:24:44;;;;;;;;;;;20.30;53.60;;;;;;1565961;74;1944;-70
2023/01/03 00:26:46;;;;;;;;;;;20.30;53.60;;;;;;1565432;75;1149;-71
2023/01/03 00:28:48;;;;;;;;;;;20.30;53.60;;;;;;1562341;74;602;-70
2023/01/03 00:30:50;;;;;;;;;;;20.30;53.60;;;;;;1561571;74;736;-70
2023/01/03 00:32:51;;;;;;;;;;;20.30;53.60;;;;;;1567128;75;714;-71
2023/01/03 00:34:53;;;;;;;;;;;20.30;53.60;;;;;;1554163;74;1200;-70
2023/01/03 00:36:55;;;;;;;;;;;20.30;53.60;;;;;;1568428;74;706;-70
2023/01/03 00:38:57;;;;;;;;;;;20.30;53.60;;;;;;1563100;74;720;-70
2023/01/03 00:41:05;;;;;;;;;;;20.30;53.60;;;;;;1566257;75;719;-70
2023/01/03 00:45:27;;;;;;;;;;;20.30;53.60;;;;;;1561903;75;1140;-70
2023/01/03 00:47:29;;;;;;;;;;;20.30;53.60;;;;;;1562093;74;781;-70
2023/01/03 00:49:31;;;;;;;;;;;20.30;53.70;;;;;;1566639;74;728;-71
2023/01/03 00:51:33;;;;;;;;;;;20.30;53.70;;;;;;1567469;75;722;-70
2023/01/03 00:53:35;;;;;;;;;;;20.30;53.70;;;;;;1565913;74;718;-71
2023/01/03 00:55:37;;;;;;;;;;;20.30;53.70;;;;;;1561803;74;1166;-70
2023/01/03 00:57:39;;;;;;;;;;;20.30;53.70;;;;;;1559799;74;1420;-70
2023/01/03 00:59:41;;;;;;;;;;;20.30;53.70;;;;;;1565890;74;710;-70
2023/01/03 01:01:44;;;;;;;;;;;20.30;53.70;;;;;;1546541;74;715;-70
2023/01/03 01:03:47;;;;;;;;;;;20.30;53.80;;;;;;1566589;74;1924;-70
2023/01/03 01:05:49;;;;;;;;;;;20.20;53.60;;;;;;1565613;74;1148;-71
2023/01/03 01:07:51;;;;;;;;;;;20.30;53.70;;;;;;1566623;74;732;-71
2023/01/03 01:09:53;;;;;;;;;;;20.30;53.80;;;;;;1565575;74;749;-70
2023/01/03 01:11:54;;;;;;;;;;;20.30;53.80;;;;;;1566490;74;730;-70
2023/01/03 01:13:56;;;;;;;;;;;20.30;53.80;;;;;;1565915;74;725;-70
2023/01/03 01:16:02;;;;;;;;;;;20.30;53.80;;;;;;1566788;75;1076;-69
2023/01/03 01:18:04;;;;;;;;;;;20.30;53.70;;;;;;1561301;74;782;-71
2023/01/03 01:20:06;;;;;;;;;;;20.30;53.80;;;;;;1564758;74;602;-70
2023/01/03 01:22:08;;;;;;;;;;;20.30;53.80;;;;;;1565644;74;695;-70
2023/01/03 01:24:10;;;;;;;;;;;20.30;53.80;;;;;;1556444;75;1932;-70
2023/01/03 01:26:13;;;;;;;;;;;20.30;53.80;;;;;;1560549;74;1152;-70
2023/01/03 01:28:15;;;;;;;;;;;20.30;53.80;;;;;;1561959;74;762;-70
2023/01/03 01:30:17;;;;;;;;;;;20.30;53.80;;;;;;1566361;74;624;-71
2023/01/03 01:32:18;;;;;;;;;;;20.30;53.80;;;;;;1568732;75;715;-70
2023/01/03 01:34:20;;;;;;;;;;;20.30;53.80;;;;;;1570368;74;681;-70
2023/01/03 01:36:23;;;;;;;;;;;20.30;53.80;;;;;;1568508;74;1160;-69
2023/01/03 01:38:25;;;;;;;;;;;20.30;53.70;;;;;;1567672;74;730;-70
2023/01/03 01:40:27;;;;;;;;;;;20.30;53.80;;;;;;1568294;75;735;-70
2023/01/03 01:44:53;;;;;;;;;;;20.30;53.80;;;;;;1566780;74;1927;-70
2023/01/03 01:46:55;;;;;;;;;;;20.30;53.80;;;;;;1560761;74;1115;-70
2023/01/03 01:48:58;;;;;;;;;;;20.30;53.80;;;;;;1570860;74;634;-71
2023/01/03 01:51:00;;;;;;;;;;;20.30;53.90;;;;;;1568231;74;729;-70
2023/01/03 01:53:04;;;;;;;;;;;20.30;53.90;;;;;;1565849;75;707;-72
2023/01/03 01:55:06;;;;;;;;;;;20.30;53.80;;;;;;1558313;74;1329;-70
2023/01/03 01:57:09;;;;;;;;;;;20.30;53.80;;;;;;1562570;74;718;-71
2023/01/03 01:59:11;;;;;;;;;;;20.30;53.80;;;;;;1567208;74;718;-70
2023/01/03 02:01:13;;;;;;;;;;;20.30;53.80;;;;;;1562429;74;707;-71
2023/01/03 02:03:15;;;;;;;;;;;20.30;53.80;;;;;;1559969;74;822;-71
2023/01/03 02:05:17;;;;;;;;;;;20.30;53.80;;;;;;1559235;74;1946;-70
2023/01/03 02:07:19;;;;;;;;;;;20.30;53.80;;;;;;1565885;74;737;-70
2023/01/03 02:09:21;;;;;;;;;;;20.30;53.90;;;;;;1564714;74;727;-70
2023/01/03 02:11:41;;;;;;;;;;;20.30;53.80;;;;;;1563477;75;730;-70
2023/01/03 02:13:45;;;;;;;;;;;20.30;53.90;;;;;;1563386;74;561;-70
2023/01/03 02:15:51;;;;;;;;;;;20.30;53.80;;;;;;1565617;74;1670;-70
2023/01/03 02:18:12;;;;;;;;;;;20.30;53.90;;;;;;1562684;74;707;-70
2023/01/03 02:20:15;;;;;;;;;;;20.30;53.80;;;;;;1568233;74;755;-72
2023/01/03 02:22:21;;;;;;;;;;;20.30;53.80;;;;;;1565340;74;1657;-70
2023/01/03 02:24:25;;;;;;;;;;;20.30;53.80;;;;;;1523766;76;1949;-71
2023/01/03 02:26:37;;;;;;;;;;;20.30;53.80;;;;;;1564159;74;1615;-72
2023/01/03 02:28:43;;;;;;;;;;;20.30;53.90;;;;;;1568794;74;747;-70
2023/01/03 02:30:47;;;;;;;;;;;20.30;53.90;;;;;;1560331;74;1562;-71
2023/01/03 02:32:56;;;;;;;;;;;20.30;53.90;;;;;;1568510;74;695;-70
2023/01/03 02:35:00;;;;;;;;;;;20.20;53.70;;;;;;1556311;74;1619;-70
2023/01/03 02:37:21;;;;;;;;;;;20.30;53.90;;;;;;1561877;75;1675;-70
2023/01/03 02:39:28;;;;;;;;;;;20.20;53.80;;;;;;1559964;74;703;-70
2023/01/03 02:41:48;;;;;;;;;;;20.30;53.90;;;;;;1563672;74;1015;-70
2023/01/03 02:43:54;;;;;;;;;;;20.30;53.90;;;;;;1557322;74;753;-71
2023/01/03 02:46:01;;;;;;;;;;;20.30;53.90;;;;;;1555472;74;1939;-69
2023/01/03 02:48:07;;;;;;;;;;;20.30;53.90;;;;;;1567558;74;722;-72
2023/01/03 02:50:09;;;;;;;;;;;20.20;53.80;;;;;;1561092;74;1706;-71
2023/01/03 02:52:12;;;;;;;;;;;20.30;53.90;;;;;;1564507;76;732;-70
2023/01/03 02:54:15;;;;;;;;;;;20.30;53.90;;;;;;1556649;74;740;-70
2023/01/03 02:56:18;;;;;;;;;;;20.30;53.90;;;;;;1567865;74;1152;-70
2023/01/03 02:58:24;;;;;;;;;;;20.30;53.90;;;;;;1562639;74;1032;-70
2023/01/03 03:00:27;;;;;;;;;;;20.20;53.70;;;;;;1562470;74;753;-70
2023/01/03 03:02:31;;;;;;;;;;;20.30;53.90;;;;;;1566485;74;713;-70
2023/01/03 03:04:33;;;;;;;;;;;20.30;53.90;;;;;;1556844;74;1914;-71
2023/01/03 03:06:42;;;;;;;;;;;20.30;53.80;;;;;;1560540;74;1116;-69
2023/01/03 03:08:45;;;;;;;;;;;20.30;53.90;;;;;;1564825;74;695;-70
2023/01/03 03:13:17;;;;;;;;;;;20.30;53.90;;;;;;1560048;74;669;-70
2023/01/03 03:15:24;;;;;;;;;;;20.30;53.80;;;;;;1564044;74;1125;-71
2023/01/03 03:17:24;;;;;;;;;;;20.30;53.90;;;;;;1559669;74;1313;-70
2023/01/03 03:26:30;;;;;;;;;;;20.30;53.90;;;;;;1554214;74;1216;-70
2023/01/03 03:28:36;;;;;;;;;;;20.20;53.80;;;;;;1564032;74;768;-70
2023/01/03 03:30:38;;;;;;;;;;;20.30;53.90;;;;;;1560044;75;720;-70
2023/01/03 03:32:40;;;;;;;;;;;20.30;53.80;;;;;;1561238;74;715;-71
2023/01/03 03:34:42;;;;;;;;;;;20.30;53.90;;;;;;1565650;74;793;-70
2023/01/03 03:36:56;;;;;;;;;;;20.20;53.70;;;;;;1558470;74;1108;-70
2023/01/03 03:38:58;;;;;;;;;;;20.20;53.70;;;;;;1567658;74;741;-71
2023/01/03 03:45:50;;;;;;;;;;;20.30;53.80;;;;;;1563350;74;1903;-71
2023/01/03 03:47:54;;;;;;;;;;;20.30;53.90;;;;;;1566798;74;727;-70
2023/01/03 03:49:57;;;;;;;;;;;20.30;53.90;;;;;;1559762;74;695;-70
2023/01/03 03:51:59;;;;;;;;;;;20.20;53.70;;;;;;1568457;74;752;-71
2023/01/03 03:54:02;;;;;;;;;;;20.30;53.80;;;;;;1561201;74;726;-71
2023/01/03 03:56:12;;;;;;;;;;;20.30;53.90;;;;;;1566198;74;1141;-71
2023/01/03 03:58:15;;;;;;;;;;;20.20;53.70;;;;;;1566527;75;713;-71
2023/01/03 04:00:19;;;;;;;;;;;20.30;53.80;;;;;;1561920;74;1059;-71
2023/01/03 04:02:21;;;;;;;;;;;20.30;53.80;;;;;;1564035;74;699;-70
2023/01/03 04:04:24;;;;;;;;;;;20.30;53.80;;;;;;1567155;74;1946;-70
2023/01/03 04:06:27;;;;;;;;;;;20.30;53.80;;;;;;1564658;74;1136;-70
2023/01/03 04:08:29;;;;;;;;;;;20.30;53.70;;;;;;1564450;74;619;-71
2023/01/03 04:10:31;;;;;;;;;;;20.30;53.70;;;;;;1568357;74;757;-70
2023/01/03 04:12:33;;;;;;;;;;;20.30;53.80;;;;;;1565853;75;691;-71
2023/01/03 04:14:35;;;;;;;;;;;20.30;53.80;;;;;;1564506;74;724;-70
2023/01/03 04:16:37;;;;;;;;;;;20.30;53.80;;;;;;1559080;74;1104;-70
2023/01/03 04:18:39;;;;;;;;;;;20.30;53.80;;;;;;1552692;74;731;-70
2023/01/03 04:20:40;;;;;;;;;;;20.30;53.80;;;;;;1558037;74;729;-72
2023/01/03 04:22:42;;;;;;;;;;;20.30;53.70;;;;;;1566964;74;716;-71
2023/01/03 04:24:44;;;;;;;;;;;20.30;53.80;;;;;;1562858;74;1947;-69
2023/01/03 04:26:46;;;;;;;;;;;20.30;53.80;;;;;;1562383;70;2083;-70
2023/01/03 04:28:48;;;;;;;;;;;20.30;53.80;;;;;;1544073;75;691;-71
2023/01/03 04:30:50;;;;;;;;;;;20.30;53.90;;;;;;1554687;75;733;-71
2023/01/03 04:32:52;;;;;;;;;;;20.30;53.80;;;;;;1543704;75;699;-70
2023/01/03 04:34:54;;;;;;;;;;;20.30;53.80;;;;;;1543356;75;744;-71
2023/01/03 04:36:55;;;;;;;;;;;20.30;53.80;;;;;;1538359;75;1189;-70
2023/01/03 04:38:57;;;;;;;;;;;20.30;53.80;;;;;;1540431;76;709;-71
2023/01/03 04:41:03;;;;;;;;;;;20.30;53.80;;;;;;1536574;77;715;-70
2023/01/03 04:45:25;;;;;;;;;;;20.30;53.80;;;;;;1537944;76;1900;-71
2023/01/03 04:47:27;;;;;;;;;;;20.30;53.70;;;;;;1541939;77;744;-71
2023/01/03 04:49:29;;;;;;;;;;;20.30;53.80;;;;;;1542068;77;729;-72
2023/01/03 04:51:31;;;;;;;;;;;20.30;53.80;;;;;;1528663;76;737;-71
2023/01/03 04:53:32;;;;;;;;;;;20.30;53.70;;;;;;1527982;76;747;-71
2023/01/03 04:55:34;;;;;;;;;;;20.30;53.70;;;;;;1538047;76;1141;-71
2023/01/03 04:57:36;;;;;;;;;;;20.30;53.70;;;;;;1526899;76;730;-71
2023/01/03 04:59:38;;;;;;;;;;;20.30;53.80;;;;;;1544647;75;778;-71
2023/01/03 05:01:50;;;;;;;;;;;20.30;53.70;;;;;;1528175;76;704;-71
2023/01/03 05:03:43;;;;;;;;;;;20.30;53.80;;;;;;1537685;76;1164;-71
2023/01/03 05:05:45;;;;;;;;;;;20.30;53.70;;;;;;1528844;76;1944;-71
2023/01/03 05:07:47;;;;;;;;;;;20.30;53.80;;;;;;1538703;76;681;-71
2023/01/03 05:09:49;;;;;;;;;;;20.30;53.70;;;;;;1541135;76;757;-71
2023/01/03 05:11:51;;;;;;;;;;;20.30;53.70;;;;;;1541723;76;719;-73
2023/01/03 05:13:53;;;;;;;;;;;20.30;53.70;;;;;;1540201;76;731;-71
2023/01/03 05:15:55;;;;;;;;;;;20.30;53.70;;;;;;1541520;76;1169;-71
2023/01/03 05:17:57;;;;;;;;;;;20.30;53.80;;;;;;1541040;76;700;-70
2023/01/03 05:26:44;;;;;;;;;;;20.30;53.80;;;;;;1479922;76;1900;-70
2023/01/03 05:28:52;;;;;;;;;;;20.30;53.80;;;;;;1551108;75;660;-70
2023/01/03 05:30:54;;;;;;;;;;;20.30;53.80;;;;;;1544082;76;709;-69
2023/01/03 05:32:56;;;;;;;;;;;20.30;53.80;;;;;;1542020;76;714;-69
2023/01/03 05:34:57;;;;;;;;;;;20.30;53.80;;;;;;1544898;76;723;-70
2023/01/03 05:36:59;;;;;;;;;;;20.30;53.80;;;;;;1540275;76;1174;-71
2023/01/03 05:39:01;;;;;;;;;;;20.30;53.80;;;;;;1532422;76;1509;-71
2023/01/03 05:41:03;;;;;;;;;;;20.30;53.80;;;;;;1536455;76;737;-72
2023/01/03 05:43:05;;;;;;;;;;;20.30;53.90;;;;;;1545660;75;742;-72
2023/01/03 05:45:08;;;;;;;;;;;20.30;53.80;;;;;;1533113;77;1931;-70
2023/01/03 05:47:09;;;;;;;;;;;20.30;53.80;;;;;;1540057;76;1127;-71
2023/01/03 05:49:11;;;;;;;;;;;20.30;53.90;;;;;;1541141;76;694;-71
2023/01/03 05:51:13;;;;;;;;;;;20.30;53.80;;;;;;1535074;76;751;-70
2023/01/03 05:53:15;;;;;;;;;;;20.30;53.90;;;;;;1541010;76;698;-71
2023/01/03 05:55:17;;;;;;;;;;;20.30;53.90;;;;;;1540200;76;708;-71
2023/01/03 05:57:19;;;;;;;;;;;20.30;53.80;;;;;;1529822;75;1176;-72
2023/01/03 05:59:21;;;;;;;;;;;20.30;53.80;;;;;;1541120;76;754;-71
2023/01/03 06:01:27;;;;;;;;;;;20.30;53.80;;;;;;1541307;76;707;-71
2023/01/03 06:03:26;;;;;;;;;;;20.30;53.80;;;;;;1539502;76;807;-70
2023/01/03 06:05:28;;;;;;;;;;;20.30;53.80;;;;;;1541981;76;1932;-70
2023/01/03 06:07:31;;;;;;;;;;;20.30;53.80;;;;;;1541946;76;725;-71
2023/01/03 06:09:33;;;;;;;;;;;20.30;53.80;;;;;;1535672;77;644;-73
2023/01/03 06:11:35;;;;;;;;;;;20.30;53.70;;;;;;1549300;75;737;-72
2023/01/03 06:13:37;;;;;;;;;;;20.30;53.80;;;;;;1541052;76;701;-70
2023/01/03 06:15:39;;;;;;;;;;;20.30;53.80;;;;;;1539851;74;1163;-70
2023/01/03 06:18:01;;;;;;;;;;;20.30;53.80;;;;;;1546316;76;713;-71
2023/01/03 06:20:02;;;;;;;;;;;20.30;53.80;;;;;;1540372;76;2009;-72
2023/01/03 06:22:04;;;;;;;;;;;20.30;53.80;;;;;;1537946;76;757;-70
2023/01/03 06:24:06;;;;;;;;;;;20.30;53.80;;;;;;1528668;76;723;-70
2023/01/03 06:26:08;;;;;;;;;;;20.30;53.70;;;;;;1543811;75;1921;-70
2023/01/03 06:28:10;;;;;;;;;;;20.30;53.70;;;;;;1545276;75;688;-70
2023/01/03 06:30:12;;;;;;;;;;;20.30;53.80;;;;;;1539177;76;723;-70
2023/01/03 06:32:14;;;;;;;;;;;20.30;53.70;;;;;;1541172;76;731;-70
2023/01/03 06:34:16;;;;;;;;;;;20.30;53.70;;;;;;1541167;77;705;-71
2023/01/03 06:36:18;;;;;;;;;;;20.30;53.70;;;;;;1537093;76;1611;-71
2023/01/03 06:38:20;;;;;;;;;;;20.30;53.80;;;;;;1541327;76;751;-71
2023/01/03 06:40:22;;;;;;;;;;;20.30;53.70;;;;;;1541237;76;722;-71
2023/01/03 06:42:41;;;;;;;;;;;20.30;53.70;;;;;;1544602;75;709;-69
2023/01/03 06:44:43;;;;;;;;;;;20.30;53.80;;;;;;1538075;76;573;-71
2023/01/03 06:53:44;;;;;;;;;;;20.30;53.80;;;;;;1512645;77;674;-69
2023/01/03 06:55:46;;;;;;;;;;;20.30;53.70;;;;;;1549454;75;1234;-71
2023/01/03 06:57:48;;;;;;;;;;;20.30;53.80;;;;;;1540881;76;713;-71
2023/01/03 06:59:50;;;;;;;;;;;20.30;53.80;;;;;;1541273;76;710;-71
2023/01/03 07:01:52;;;;;;;;;;;20.30;53.80;;;;;;1537194;76;745;-71
2023/01/03 07:03:53;;;;;;;;;;;20.30;53.90;;;;;;1533084;76;758;-70
2023/01/03 07:05:55;;;;;;;;;;;20.30;53.80;;;;;;1541064;76;1943;-70
2023/01/03 07:07:57;;;;;;;;;;;20.30;53.80;;;;;;1536323;76;720;-71
2023/01/03 07:09:59;;;;;;;;;;;20.30;53.80;;;;;;1541106;75;733;-74
2023/01/03 07:13:57;;;;;;;;;;;20.30;53.90;;;;;;1541400;76;713;-70
2023/01/03 07:14:05;;;;;;;;;;;20.30;53.80;;;;;;1531456;76;996;-70
2023/01/03 07:16:07;;;;;;;;;;;20.30;53.80;;;;;;1536744;76;1233;-71
2023/01/03 07:18:08;;;;;;;;;;;20.30;53.80;;;;;;1536700;76;706;-70
2023/01/03 07:20:10;;;;;;;;;;;20.30;53.80;;;;;;1539841;76;711;-71
2023/01/03 07:22:12;;;;;;;;;;;20.30;53.80;;;;;;1539789;76;724;-71
2023/01/03 07:24:14;;;;;;;;;;;20.30;53.70;;;;;;1532078;76;613;-71
2023/01/03 07:26:16;;;;;;;;;;;20.30;53.80;;;;;;1529455;77;1928;-71
2023/01/03 07:28:18;;;;;;;;;;;20.30;53.90;;;;;;1537976;76;708;-72
2023/01/03 07:30:20;;;;;;;;;;;20.30;53.80;;;;;;1505832;77;751;-70
2023/01/03 07:32:22;;;;;;;;;;;20.30;53.80;;;;;;1538302;76;1584;-70
2023/01/03 07:34:24;;;;;;;;;;;20.30;53.80;;;;;;1540308;76;858;-71
2023/01/03 07:36:26;;;;;;;;;;;20.30;53.80;;;;;;1539859;76;1170;-70
2023/01/03 07:38:27;;;;;;;;;;;20.30;53.80;;;;;;1540338;77;602;-69
2023/01/03 07:40:29;;;;;;;;;;;20.30;53.90;;;;;;1542488;75;704;-70
2023/01/03 07:44:51;;;;;;;;;;;20.30;53.80;;;;;;1522809;77;695;-70
2023/01/03 07:46:53;;;;;;;;;;;20.30;53.80;;;;;;1539989;76;1926;-70
2023/01/03 07:49:01;;;;;;;;;;;20.30;53.90;;;;;;1540200;76;709;-69
2023/01/03 07:50:58;;;;;;;;;;;20.30;53.70;;;;;;1534756;76;1112;-71
2023/01/03 07:53:00;;;;;;;;;;;20.30;53.80;;;;;;1533011;76;731;-71
2023/01/03 07:55:02;;;;;;;;;;;20.30;53.80;;;;;;1546104;75;756;-70
2023/01/03 07:57:04;;;;;;;;;;;20.30;53.90;;;;;;1534884;76;1110;-71
2023/01/03 07:59:06;;;;;;;;;;;20.30;53.80;;;;;;1537787;76;722;-70
2023/01/03 08:01:09;;;;;;;;;;;20.30;53.80;;;;;;1526609;77;731;-70
2023/01/03 08:03:11;;;;;;;;;;;20.30;53.90;;;;;;1529519;77;1027;-70
2023/01/03 08:05:13;;;;;;;;;;;20.30;53.90;;;;;;1539630;76;691;-71
2023/01/03 08:07:15;;;;;;;;;;;20.30;53.90;;;;;;1529157;76;1935;-70
2023/01/03 08:13:57;;;;;;;;;;;20.30;53.80;;;;;;1528773;76;548;-70
2023/01/03 08:15:59;;;;;;;;;;;20.30;53.80;;;;;;1529532;76;1151;-72
2023/01/03 08:18:02;;;;;;;;;;;20.30;53.80;;;;;;1537076;76;734;-71
2023/01/03 08:20:04;;;;;;;;;;;20.30;53.80;;;;;;1541282;76;694;-71
2023/01/03 08:22:06;;;;;;;;;;;20.30;53.80;;;;;;1538291;77;752;-71
2023/01/03 08:24:08;;;;;;;;;;;20.30;53.90;;;;;;1547973;75;709;-71
2023/01/03 08:26:14;;;;;;;;;;;20.30;53.80;;;;;;1535658;76;1945;-70
2023/01/03 08:28:16;;;;;;;;;;;20.30;53.80;;;;;;1538712;76;1498;-71
2023/01/03 08:30:17;;;;;;;;;;;20.30;53.80;;;;;;1531797;76;637;-71
2023/01/03 08:32:20;;;;;;;;;;;20.30;53.80;;;;;;1534112;76;738;-72
2023/01/03 08:34:22;;;;;;;;;;;20.30;53.70;;;;;;1535077;76;718;-71
2023/01/03 08:36:24;;;;;;;;;;;20.30;53.80;;;;;;1540820;76;1097;-72
2023/01/03 08:38:27;;;;;;;;;;;20.30;53.80;;;;;;1513509;77;724;-71
2023/01/03 08:40:29;;;;;;;;;;;20.30;53.80;;;;;;1542102;76;717;-71
2023/01/03 08:42:31;;;;;;;;;;;20.30;53.90;;;;;;1535564;76;690;-71
2023/01/03 08:44:33;;;;;;;;;;;20.30;53.80;;;;;;1508674;77;672;-70
2023/01/03 08:46:35;;;;;;;;;;;20.30;53.80;;;;;;1539824;76;1943;-71
2023/01/03 08:48:36;;;;;;;;;;;20.30;53.70;;;;;;1541534;76;725;-71
2023/01/03 08:50:38;;;;;;;;;;;20.30;53.80;;;;;;1541943;76;731;-70
2023/01/03 08:52:40;;;;;;;;;;;20.30;53.80;;;;;;1541900;75;723;-71
2023/01/03 08:54:42;;;;;;;;;;;20.30;53.70;;;;;;1541969;77;713;-71
2023/01/03 08:56:44;;;;;;;;;;;20.30;53.70;;;;;;1533059;76;1169;-71
2023/01/03 08:58:46;;;;;;;;;;;20.30;53.80;;;;;;1541614;76;715;-70
2023/01/03 09:00:48;;;;;;;;;;;20.30;53.70;;;;;;1541299;76;640;-71
2023/01/03 09:02:50;;;;;;;;;;;20.30;53.80;;;;;;1540534;76;723;-72
2023/01/03 09:04:52;;;;;;;;;;;20.40;53.70;;;;;;1542930;76;740;-70
2023/01/03 09:06:54;;;;;;;;;;;20.30;53.80;;;;;;1541188;75;1944;-69
2023/01/03 09:08:55;;;;;;;;;;;20.30;53.80;;;;;;1541390;76;717;-70
2023/01/03 09:10:57;;;;;;;;;;;20.40;53.70;;;;;;1537905;77;719;-71
2023/01/03 09:13:00;;;;;;;;;;;20.30;53.70;;;;;;1541401;76;716;-71
2023/01/03 09:15:02;;;;;;;;;;;20.30;53.70;;;;;;1530339;76;726;-71
2023/01/03 09:17:04;;;;;;;;;;;20.30;53.60;;;;;;1541139;76;1142;-71
2023/01/03 09:19:06;;;;;;;;;;;20.30;53.70;;;;;;1541423;76;708;-71
2023/01/03 09:21:08;;;;;;;;;;;20.40;53.70;;;;;;1536715;75;661;-70
2023/01/03 09:23:10;;;;;;;;;;;20.30;53.70;;;;;;1536386;76;557;-70
2023/01/03 09:25:12;;;;;;;;;;;20.30;53.70;;;;;;1541624;76;1637;-71
2023/01/03 09:27:14;;;;;;;;;;;20.30;53.70;;;;;;1541572;77;1932;-70
2023/01/03 09:29:15;;;;;;;;;;;20.30;53.70;;;;;;1540372;76;754;-70
2023/01/03 09:31:17;;;;;;;;;;;20.30;53.60;;;;;;1533581;76;734;-71
2023/01/03 09:33:19;;;;;;;;;;;20.30;53.70;;;;;;1539239;76;680;-70
2023/01/03 09:35:21;;;;;;;;;;;20.30;53.70;;;;;;1542675;76;938;-71
2023/01/03 09:37:23;;;;;;;;;;;20.30;53.70;;;;;;1541299;75;753;-72
2023/01/03 09:39:25;;;;;;;;;;;20.30;53.80;;;;;;1541826;76;742;-72
2023/01/03 09:41:27;;;;;;;;;;;20.30;53.70;;;;;;1541712;76;820;-72
2023/01/03 09:43:30;;;;;;;;;;;20.30;53.70;;;;;;1533749;76;719;-72
2023/01/03 09:45:32;;;;;;;;;;;20.30;53.70;;;;;;1526708;76;1599;-71
2023/01/03 09:47:35;;;;;;;;;;;20.30;53.70;;;;;;1539843;76;1944;-71
2023/01/03 09:49:37;;;;;;;;;;;20.40;53.70;;;;;;1523692;77;748;-71
2023/01/03 10:03:42;;;;;;;;;;;20.30;53.70;;;;;;1538383;76;697;-72
2023/01/03 10:05:57;;;;;;;;;;;20.30;53.70;;;;;;1541853;75;1130;-71
2023/01/03 10:08:07;;;;;;;;;;;20.30;53.80;;;;;;1539902;76;1943;-74
2023/01/03 10:10:10;;;;;;;;;;;20.30;53.80;;;;;;1540364;76;725;-71
2023/01/03 10:12:20;;;;;;;;;;;20.30;53.80;;;;;;1538485;76;1122;-71
2023/01/03 10:14:24;;;;;;;;;;;20.30;53.80;;;;;;1527070;76;1078;-72
2023/01/03 10:16:36;;;;;;;;;;;20.30;53.70;;;;;;1536356;76;1151;-71
2023/01/03 10:18:40;;;;;;;;;;;20.40;53.70;;;;;;1539608;76;1136;-71
2023/01/03 10:20:43;;;;;;;;;;;20.30;53.70;;;;;;1544747;75;1504;-71
2023/01/03 10:22:45;;;;;;;;;;;20.30;53.80;;;;;;1536207;76;710;-70
2023/01/03 10:24:49;;;;;;;;;;;20.30;53.80;;;;;;1539254;76;710;-71
2023/01/03 10:26:58;;;;;;;;;;;20.30;53.70;;;;;;1569904;70;2106;-70
2023/01/03 10:29:00;;;;;;;;;;;20.30;53.80;;;;;;1575062;74;1083;-70
2023/01/03 10:31:22;;;;;;;;;;;20.30;53.70;;;;;;1589346;74;702;-70
2023/01/03 10:33:28;;;;;;;;;;;20.40;53.70;;;;;;1568967;74;682;-70
2023/01/03 10:35:30;;;;;;;;;;;20.30;53.70;;;;;;1578768;74;715;-70
2023/01/03 10:37:32;;;;;;;;;;;20.30;53.70;;;;;;1596901;72;1171;-70
2023/01/03 10:39:34;;;;;;;;;;;20.40;53.70;;;;;;1594443;72;725;-70
2023/01/03 10:41:43;;;;;;;;;;;20.30;53.70;;;;;;1599012;72;726;-70
2023/01/03 10:43:45;;;;;;;;;;;20.40;53.80;;;;;;1602229;72;700;-70
2023/01/03 10:45:48;;;;;;;;;;;20.30;53.80;;;;;;1596557;73;1172;-70
2023/01/03 10:47:57;;;;;;;;;;;20.40;53.70;;;;;;1604260;72;1956;-68
2023/01/03 10:50:02;;;;;;;;;;;20.40;53.70;;;;;;1605296;72;691;-70
2023/01/03 10:52:11;;;;;;;;;;;20.30;53.70;;;;;;1603456;73;741;-70
2023/01/03 10:54:21;;;;;;;;;;;20.30;53.80;;;;;;1605790;72;716;-70
2023/01/03 10:56:23;;;;;;;;;;;20.30;53.80;;;;;;1603235;72;1128;-70
2023/01/03 10:58:25;;;;;;;;;;;20.40;53.70;;;;;;1605722;74;719;-70
2023/01/03 11:00:36;;;;;;;;;;;20.30;53.70;;;;;;1603962;72;733;-70
2023/01/03 11:02:44;;;;;;;;;;;20.30;53.80;;;;;;1605258;72;731;-70
2023/01/03 11:04:46;;;;;;;;;;;20.30;53.80;;;;;;1605153;72;752;-70
2023/01/03 11:07:02;;;;;;;;;;;20.30;53.70;;;;;;1601147;72;1957;-69
2023/01/03 11:09:05;;;;;;;;;;;20.30;53.80;;;;;;1599347;72;735;-70
2023/01/03 11:11:09;;;;;;;;;;;20.30;53.70;;;;;;1571033;74;1275;-70
2023/01/03 11:13:29;;;;;;;;;;;20.30;53.70;;;;;;1604630;72;1033;-70
2023/01/03 11:15:33;;;;;;;;;;;20.40;53.70;;;;;;1587096;72;655;-69
2023/01/03 11:17:34;;;;;;;;;;;20.30;53.70;;;;;;1604508;72;1838;-70
2023/01/03 11:19:36;;;;;;;;;;;20.30;53.80;;;;;;1599872;72;700;-70
2023/01/03 11:21:39;;;;;;;;;;;20.30;53.70;;;;;;1603670;72;841;-70
2023/01/03 11:23:59;;;;;;;;;;;20.30;53.70;;;;;;1601214;73;735;-70
2023/01/03 11:26:03;;;;;;;;;;;20.30;53.80;;;;;;1599630;72;1156;-70
2023/01/03 11:28:21;;;;;;;;;;;20.30;53.80;;;;;;1602564;72;1952;-70
2023/01/03 11:30:28;;;;;;;;;;;20.30;53.70;;;;;;1591789;73;720;-68
2023/01/03 11:32:48;;;;;;;;;;;20.30;53.70;;;;;;1606791;72;1118;-69
2023/01/03 11:35:03;;;;;;;;;;;20.60;53.80;;;;;;1605502;72;735;-70
2023/01/03 11:37:06;;;;;;;;;;;20.30;53.80;;;;;;1597599;72;1606;-69
2023/01/03 11:39:16;;;;;;;;;;;20.30;53.80;;;;;;1600895;72;714;-70
2023/01/03 11:41:37;;;;;;;;;;;20.30;53.80;;;;;;1603227;72;724;-70
2023/01/03 11:43:53;;;;;;;;;;;20.30;53.80;;;;;;1601799;72;1600;-71
2023/01/03 11:46:13;;;;;;;;;;;20.30;53.80;;;;;;1593648;72;1612;-70
2023/01/03 11:48:28;;;;;;;;;;;20.30;53.80;;;;;;1597455;72;1940;-69
2023/01/03 11:50:35;;;;;;;;;;;20.30;53.80;;;;;;1604924;72;1460;-70
2023/01/03 11:52:41;;;;;;;;;;;20.30;53.80;;;;;;1587484;73;1622;-70
2023/01/03 11:55:01;;;;;;;;;;;20.30;53.80;;;;;;1607190;72;1692;-70
2023/01/03 11:57:04;;;;;;;;;;;20.30;53.80;;;;;;1600718;72;1124;-73
2023/01/03 11:59:11;;;;;;;;;;;20.30;53.90;;;;;;1604186;72;1699;-70
2023/01/03 12:01:23;;;;;;;;;;;20.30;53.90;;;;;;1603967;72;1608;-70
2023/01/03 12:03:36;;;;;;;;;;;20.30;53.90;;;;;;1608500;72;773;-70
2023/01/03 12:05:42;;;;;;;;;;;20.30;53.80;;;;;;1603127;72;696;-70
2023/01/03 12:07:51;;;;;;;;;;;20.30;53.90;;;;;;1602982;73;1968;-70
2023/01/03 12:10:01;;;;;;;;;;;20.30;53.90;;;;;;1599743;74;698;-69
2023/01/03 12:12:06;;;;;;;;;;;20.30;53.80;;;;;;1601363;72;1496;-69
2023/01/03 12:14:12;;;;;;;;;;;20.30;53.80;;;;;;1597080;74;752;-70
2023/01/03 12:16:25;;;;;;;;;;;20.30;53.90;;;;;;1598754;72;1127;-70
2023/01/03 12:18:34;;;;;;;;;;;20.30;53.90;;;;;;1603968;72;708;-70
2023/01/03 12:20:36;;;;;;;;;;;20.30;53.90;;;;;;1601262;72;1147;-70
2023/01/03 12:22:49;;;;;;;;;;;20.30;53.90;;;;;;1599034;72;731;-70
2023/01/03 12:24:58;;;;;;;;;;;20.30;53.80;;;;;;1596131;72;1579;-70
2023/01/03 12:27:02;;;;;;;;;;;20.30;53.90;;;;;;1589488;73;1111;-70
2023/01/03 12:29:04;;;;;;;;;;;20.30;53.90;;;;;;1596831;73;1937;-70
2023/01/03 12:31:20;;;;;;;;;;;20.30;53.90;;;;;;1603330;72;744;-68
2023/01/03 12:33:24;;;;;;;;;;;20.30;53.90;;;;;;1605653;73;804;-70
2023/01/03 12:35:27;;;;;;;;;;;20.30;53.80;;;;;;1573089;73;1387;-70
2023/01/03 12:37:30;;;;;;;;;;;20.30;53.80;;;;;;1602172;72;1117;-70
2023/01/03 12:39:39;;;;;;;;;;;20.30;53.90;;;;;;1599135;72;717;-70
2023/01/03 12:41:48;;;;;;;;;;;20.30;53.90;;;;;;1600157;72;713;-70
2023/01/03 12:43:52;;;;;;;;;;;20.30;53.80;;;;;;1571016;74;1029;-70
2023/01/03 12:45:55;;;;;;;;;;;20.30;53.90;;;;;;1605805;72;1117;-70
2023/01/03 12:48:04;;;;;;;;;;;20.30;53.80;;;;;;1614687;72;1933;-69
2023/01/03 12:50:14;;;;;;;;;;;20.30;53.80;;;;;;1604916;72;752;-69
2023/01/03 12:52:17;;;;;;;;;;;20.30;53.90;;;;;;1598345;72;699;-70
2023/01/03 12:54:23;;;;;;;;;;;20.30;53.80;;;;;;1572209;74;731;-70
2023/01/03 12:56:27;;;;;;;;;;;20.30;53.80;;;;;;1604969;73;1187;-70
2023/01/03 12:58:39;;;;;;;;;;;20.30;53.90;;;;;;1594825;74;733;-70
2023/01/03 13:00:48;;;;;;;;;;;20.30;53.80;;;;;;1604419;72;698;-70
2023/01/03 13:02:52;;;;;;;;;;;20.30;53.90;;;;;;1604594;72;1149;-70
2023/01/03 13:04:56;;;;;;;;;;;20.30;53.90;;;;;;1596367;74;730;-69
2023/01/03 13:07:16;;;;;;;;;;;20.40;53.90;;;;;;1603991;72;1139;-70
2023/01/03 13:09:19;;;;;;;;;;;20.30;53.80;;;;;;1599371;73;1928;-70
2023/01/03 13:11:26;;;;;;;;;;;20.30;53.90;;;;;;1601991;72;1566;-70
2023/01/03 13:13:28;;;;;;;;;;;20.30;53.90;;;;;;1604549;72;713;-70